sensor_id;sensor_type;location;lat;lon;timestamp;pressure;altitude;pressure_sealevel;temperature;humidity
36354;BME280;22383;51.114;13.666;2023-01-31T00:01:31;67316.03;;;1.15;100.00
36354;BME280;22383;51.114;13.666;2023-01-31T00:04:03;67316.56;;;1.15;100.00
36354;BME280;22383;51.114;13.666;2023-01-31T00:06:34;67330.78;;;1.23;100.00
36354;BME280;22383;51.114;13.666;2023-01-31T00:09:05;67330.63;;;1.28;100.00
36354;BME280;22383;51.114;13.666;2023-01-31T00:11:35;67335.28;;;1.27;100.00
36354;BME280;22383;51.114;13.666;2023-01-31T00:14:04;67331.56;;;1.26;100.00
36354;BME280;22383;51.114;13.666;2023-01-31T00:16:33;67334.94;;;1.29;100.00
36354;BME280;22383;51.114;13.666;2023-01-31T00:19:01;67332.69;;;1.27;100.00
36354;BME280;22383;51.114;13.666;2023-01-31T00:21:28;67330.25;;;1.23;100.00
36354;BME280;22383;51.114;13.666;2023-01-31T00:23:56;67334.38;;;1.29;100.00
36354;BME280;22383;51.114;13.666;2023-01-31T00:26:24;67338.72;;;1.38;100.00
36354;BME280;22383;51.114;13.666;2023-01-31T00:28:52;67349.56;;;1.43;100.00
36354;BME280;22383;51.114;13.666;2023-01-31T00:31:20;67346.97;;;1.43;100.00
36354;BME280;22383;51.114;13.666;2023-01-31T00:33:48;67349.41;;;1.47;100.00
36354;BME280;22383;51.114;13.666;2023-01-31T00:36:23;67360.06;;;1.50;100.00
36354;BME280;22383;51.114;13.666;2023-01-31T00:38:51;67355.38;;;1.50;100.00
36354;BME280;22383;51.114;13.666;2023-01-31T00:41:19;67362.50;;;1.55;100.00
36354;BME280;22383;51.114;13.666;2023-01-31T00:43:46;67367.16;;;1.54;100.00
36354;BME280;22383;51.114;13.666;2023-01-31T00:46:16;67356.31;;;1.49;100.00
36354;BME280;22383;51.114;13.666;2023-01-31T00:48:43;67346.97;;;1.43;100.00
36354;BME280;22383;51.114;13.666;2023-01-31T00:51:10;67351.97;;;1.40;100.00
36354;BME280;22383;51.114;13.666;2023-01-31T00:53:37;67352.72;;;1.43;100.00
36354;BME280;22383;51.114;13.666;2023-01-31T00:56:10;67349.34;;;1.40;100.00
36354;BME280;22383;51.114;13.666;2023-01-31T00:58:38;67347.09;;;1.38;100.00
36354;BME280;22383;51.114;13.666;2023-01-31T01:01:17;67334.59;;;1.31;100.00
36354;BME280;22383;51.114;13.666;2023-01-31T01:03:45;67327.06;;;1.22;100.00
36354;BME280;22383;51.114;13.666;2023-01-31T01:06:15;67327.41;;;1.20;100.00
36354;BME280;22383;51.114;13.666;2023-01-31T01:08:45;67320.69;;;1.14;100.00
36354;BME280;22383;51.114;13.666;2023-01-31T01:11:23;67301.03;;;1.03;100.00
36354;BME280;22383;51.114;13.666;2023-01-31T01:13:55;67301.75;;;0.99;100.00
36354;BME280;22383;51.114;13.666;2023-01-31T01:16:26;67295.00;;;0.93;100.00
36354;BME280;22383;51.114;13.666;2023-01-31T01:18:54;67302.66;;;0.98;100.00
36354;BME280;22383;51.114;13.666;2023-01-31T01:21:23;67299.28;;;0.94;100.00
36354;BME280;22383;51.114;13.666;2023-01-31T01:23:58;67292.75;;;0.91;100.00
36354;BME280;22383;51.114;13.666;2023-01-31T01:26:27;67293.66;;;0.89;100.00
36354;BME280;22383;51.114;13.666;2023-01-31T01:28:54;67289.94;;;0.88;100.00
36354;BME280;22383;51.114;13.666;2023-01-31T01:31:22;67284.31;;;0.83;100.00
36354;BME280;22383;51.114;13.666;2023-01-31T01:33:57;67273.44;;;0.71;100.00
36354;BME280;22383;51.114;13.666;2023-01-31T01:36:25;67255.84;;;0.60;100.00
36354;BME280;22383;51.114;13.666;2023-01-31T01:38:53;67243.06;;;0.43;100.00
36354;BME280;22383;51.114;13.666;2023-01-31T01:41:22;67240.59;;;0.38;100.00
36354;BME280;22383;51.114;13.666;2023-01-31T01:43:51;67232.03;;;0.35;100.00
36354;BME280;22383;51.114;13.666;2023-01-31T01:46:32;67234.84;;;0.38;100.00
36354;BME280;22383;51.114;13.666;2023-01-31T01:49:05;67237.84;;;0.43;100.00
36354;BME280;22383;51.114;13.666;2023-01-31T01:51:38;67247.97;;;0.52;100.00
36354;BME280;22383;51.114;13.666;2023-01-31T01:54:07;67255.84;;;0.60;100.00
36354;BME280;22383;51.114;13.666;2023-01-31T01:56:36;67262.94;;;0.64;100.00
36354;BME280;22383;51.114;13.666;2023-01-31T02:01:37;67265.00;;;0.63;100.00
36354;BME280;22383;51.114;13.666;2023-01-31T02:04:09;67260.34;;;0.64;100.00
36354;BME280;22383;51.114;13.666;2023-01-31T02:06:41;67267.09;;;0.70;100.00
36354;BME280;22383;51.114;13.666;2023-01-31T02:09:10;67277.34;;;0.74;100.00
36354;BME280;22383;51.114;13.666;2023-01-31T02:11:41;67290.66;;;0.84;100.00
36354;BME280;22383;51.114;13.666;2023-01-31T02:14:08;67286.00;;;0.85;100.00
36354;BME280;22383;51.114;13.666;2023-01-31T02:16:36;67292.75;;;0.91;100.00
36354;BME280;22383;51.114;13.666;2023-01-31T02:19:03;67287.53;;;0.91;100.00
36354;BME280;22383;51.114;13.666;2023-01-31T02:21:45;67297.81;;;0.96;100.00
36354;BME280;22383;51.114;13.666;2023-01-31T02:29:22;67313.00;;;1.09;100.00
36354;BME280;22383;51.114;13.666;2023-01-31T02:31:57;67309.06;;;1.06;100.00
36354;BME280;22383;51.114;13.666;2023-01-31T02:34:33;67312.44;;;1.09;100.00
36354;BME280;22383;51.114;13.666;2023-01-31T02:37:39;67309.84;;;1.09;100.00
36354;BME280;22383;51.114;13.666;2023-01-31T02:40:15;67311.31;;;1.08;100.00
36354;BME280;22383;51.114;13.666;2023-01-31T02:42:46;67316.94;;;1.13;100.00
36354;BME280;22383;51.114;13.666;2023-01-31T02:45:22;67290.66;;;1.10;100.00
36354;BME280;22383;51.114;13.666;2023-01-31T02:50:23;67313.41;;;1.15;100.00
36354;BME280;22383;51.114;13.666;2023-01-31T02:52:58;67331.34;;;1.24;100.00
36354;BME280;22383;51.114;13.666;2023-01-31T02:55:35;67315.66;;;1.17;100.00
36354;BME280;22383;51.114;13.666;2023-01-31T02:58:23;67326.28;;;1.19;100.00
36354;BME280;22383;51.114;13.666;2023-01-31T03:00:52;67322.75;;;1.21;100.00
36354;BME280;22383;51.114;13.666;2023-01-31T03:03:23;67327.41;;;1.20;100.00
36354;BME280;22383;51.114;13.666;2023-01-31T03:08:37;67329.88;;;1.25;100.00
36354;BME280;22383;51.114;13.666;2023-01-31T03:11:06;67320.72;;;1.21;100.00
36354;BME280;22383;51.114;13.666;2023-01-31T03:13:45;67322.19;;;1.20;100.00
36354;BME280;22383;51.114;13.666;2023-01-31T03:19:11;67321.78;;;1.15;100.00
36354;BME280;22383;51.114;13.666;2023-01-31T03:21:44;67321.22;;;1.15;100.00
36354;BME280;22383;51.114;13.666;2023-01-31T03:24:14;67316.16;;;1.10;100.00
36354;BME280;22383;51.114;13.666;2023-01-31T03:26:44;67306.25;;;1.03;100.00
36354;BME280;22383;51.114;13.666;2023-01-31T03:29:13;67302.88;;;1.00;100.00
36354;BME280;22383;51.114;13.666;2023-01-31T03:31:52;67301.19;;;0.99;100.00
36354;BME280;22383;51.114;13.666;2023-01-31T03:34:22;67299.50;;;0.97;100.00
36354;BME280;22383;51.114;13.666;2023-01-31T03:39:45;67301.19;;;0.99;100.00
36354;BME280;22383;51.114;13.666;2023-01-31T03:47:24;67285.09;;;0.86;100.00
36354;BME280;22383;51.114;13.666;2023-01-31T03:49:53;67275.53;;;0.78;100.00
36354;BME280;22383;51.114;13.666;2023-01-31T03:52:25;67258.66;;;0.62;100.00
36354;BME280;22383;51.114;13.666;2023-01-31T03:54:58;67247.63;;;0.54;100.00
36354;BME280;22383;51.114;13.666;2023-01-31T03:57:28;67242.91;;;0.48;100.00
36354;BME280;22383;51.114;13.666;2023-01-31T03:59:58;67236.75;;;0.42;100.00
36354;BME280;22383;51.114;13.666;2023-01-31T04:02:40;67235.75;;;0.36;100.00
36354;BME280;22383;51.114;13.666;2023-01-31T04:05:09;67224.16;;;0.28;100.00
36354;BME280;22383;51.114;13.666;2023-01-31T04:07:51;67222.25;;;0.24;100.00
36354;BME280;22383;51.114;13.666;2023-01-31T04:10:22;67215.53;;;0.18;100.00
36354;BME280;22383;51.114;13.666;2023-01-31T04:12:49;67213.47;;;0.18;100.00
36354;BME280;22383;51.114;13.666;2023-01-31T04:15:16;67213.13;;;0.21;100.00
36354;BME280;22383;51.114;13.666;2023-01-31T04:17:44;67216.31;;;0.21;100.00
36354;BME280;22383;51.114;13.666;2023-01-31T04:20:11;67217.78;;;0.20;100.00
36354;BME280;22383;51.114;13.666;2023-01-31T04:22:46;67213.28;;;0.16;100.00
36354;BME280;22383;51.114;13.666;2023-01-31T04:25:14;67201.88;;;0.10;100.00
36354;BME280;22383;51.114;13.666;2023-01-31T04:27:41;67203.72;;;0.07;100.00
36354;BME280;22383;51.114;13.666;2023-01-31T04:30:08;67205.06;;;0.11;100.00
36354;BME280;22383;51.114;13.666;2023-01-31T04:32:36;67221.16;;;0.23;100.00
36354;BME280;22383;51.114;13.666;2023-01-31T04:35:03;67220.06;;;0.29;100.00
36354;BME280;22383;51.114;13.666;2023-01-31T04:37:31;67227.38;;;0.36;100.00
36354;BME280;22383;51.114;13.666;2023-01-31T04:39:58;67244.94;;;0.47;100.00
36354;BME280;22383;51.114;13.666;2023-01-31T04:42:25;67257.31;;;0.59;100.00
36354;BME280;22383;51.114;13.666;2023-01-31T04:44:52;67262.19;;;0.61;100.00
36354;BME280;22383;51.114;13.666;2023-01-31T04:47:19;67264.06;;;0.65;100.00
36354;BME280;22383;51.114;13.666;2023-01-31T04:49:49;67271.97;;;0.72;100.00
36354;BME280;22383;51.114;13.666;2023-01-31T04:52:16;67273.06;;;0.73;100.00
36354;BME280;22383;51.114;13.666;2023-01-31T04:54:43;67284.31;;;0.83;100.00
36354;BME280;22383;51.114;13.666;2023-01-31T04:57:10;67290.50;;;0.89;100.00
36354;BME280;22383;51.114;13.666;2023-01-31T04:59:40;67290.72;;;0.91;100.00
36354;BME280;22383;51.114;13.666;2023-01-31T05:02:07;67296.91;;;0.97;100.00
36354;BME280;22383;51.114;13.666;2023-01-31T05:04:34;67297.63;;;0.93;100.00
36354;BME280;22383;51.114;13.666;2023-01-31T05:07:04;67302.31;;;1.00;100.00
36354;BME280;22383;51.114;13.666;2023-01-31T05:09:31;67302.31;;;1.00;100.00
36354;BME280;22383;51.114;13.666;2023-01-31T05:11:58;67301.75;;;0.99;100.00
36354;BME280;22383;51.114;13.666;2023-01-31T05:14:25;67300.63;;;0.98;100.00
36354;BME280;22383;51.114;13.666;2023-01-31T05:16:55;67298.38;;;0.96;100.00
36354;BME280;22383;51.114;13.666;2023-01-31T05:19:22;67303.03;;;0.96;100.00
36354;BME280;22383;51.114;13.666;2023-01-31T05:21:52;67296.13;;;0.94;100.00
36354;BME280;22383;51.114;13.666;2023-01-31T05:24:27;67304.16;;;0.97;100.00
36354;BME280;22383;51.114;13.666;2023-01-31T05:26:57;67296.91;;;0.97;100.00
36354;BME280;22383;51.114;13.666;2023-01-31T05:29:25;67299.88;;;0.95;100.00
36354;BME280;22383;51.114;13.666;2023-01-31T05:31:53;67291.28;;;0.92;100.00
36354;BME280;22383;51.114;13.666;2023-01-31T05:34:21;67292.53;;;0.88;100.00
36354;BME280;22383;51.114;13.666;2023-01-31T05:36:48;67293.09;;;0.89;100.00
36354;BME280;22383;51.114;13.666;2023-01-31T05:39:15;67294.78;;;0.90;100.00
36354;BME280;22383;51.114;13.666;2023-01-31T05:41:42;67288.81;;;0.87;100.00
36354;BME280;22383;51.114;13.666;2023-01-31T05:44:09;67288.63;;;0.85;100.00
36354;BME280;22383;51.114;13.666;2023-01-31T05:46:37;67286.00;;;0.85;100.00
36354;BME280;22383;51.114;13.666;2023-01-31T05:49:04;67283.19;;;0.82;100.00
36354;BME280;22383;51.114;13.666;2023-01-31T05:51:31;67280.78;;;0.85;100.00
36354;BME280;22383;51.114;13.666;2023-01-31T05:53:58;67283.53;;;0.80;100.00
36354;BME280;22383;51.114;13.666;2023-01-31T05:56:25;67282.06;;;0.81;100.00
36354;BME280;22383;51.114;13.666;2023-01-31T06:00:56;67274.41;;;0.77;100.00
36354;BME280;22383;51.114;13.666;2023-01-31T06:03:24;67271.97;;;0.72;100.00
36354;BME280;22383;51.114;13.666;2023-01-31T06:05:52;67281.66;;;0.76;100.00
36354;BME280;22383;51.114;13.666;2023-01-31T06:08:19;67274.63;;;0.79;100.00
36354;BME280;22383;51.114;13.666;2023-01-31T06:10:45;67285.22;;;0.82;100.00
36354;BME280;22383;51.114;13.666;2023-01-31T06:13:13;67286.00;;;0.85;100.00
36354;BME280;22383;51.114;13.666;2023-01-31T06:15:43;67290.31;;;0.86;100.00
36354;BME280;22383;51.114;13.666;2023-01-31T06:18:10;67289.94;;;0.88;100.00
36354;BME280;22383;51.114;13.666;2023-01-31T06:20:37;67299.63;;;0.92;100.00
36354;BME280;22383;51.114;13.666;2023-01-31T06:23:06;67301.13;;;0.91;100.00
36354;BME280;22383;51.114;13.666;2023-01-31T06:25:33;67298.94;;;0.97;100.00
36354;BME280;22383;51.114;13.666;2023-01-31T06:28:00;67299.28;;;0.94;100.00
36354;BME280;22383;51.114;13.666;2023-01-31T06:30:27;67298.16;;;0.93;100.00
36354;BME280;22383;51.114;13.666;2023-01-31T06:32:54;67290.50;;;0.89;100.00
36354;BME280;22383;51.114;13.666;2023-01-31T06:35:22;67285.66;;;0.87;100.00
36354;BME280;22383;51.114;13.666;2023-01-31T06:37:49;67280.56;;;0.82;100.00
36354;BME280;22383;51.114;13.666;2023-01-31T06:40:18;67265.06;;;0.70;100.00
36354;BME280;22383;51.114;13.666;2023-01-31T06:42:48;67262.94;;;0.64;100.00
36354;BME280;22383;51.114;13.666;2023-01-31T06:45:15;67258.44;;;0.60;100.00
36354;BME280;22383;51.114;13.666;2023-01-31T06:47:43;67254.72;;;0.59;100.00
36354;BME280;22383;51.114;13.666;2023-01-31T06:50:11;67255.63;;;0.57;100.00
36354;BME280;22383;51.114;13.666;2023-01-31T06:52:39;67258.09;;;0.62;100.00
36354;BME280;22383;51.114;13.666;2023-01-31T06:55:07;67261.81;;;0.63;100.00
36354;BME280;22383;51.114;13.666;2023-01-31T06:57:34;67268.94;;;0.67;100.00
36354;BME280;22383;51.114;13.666;2023-01-31T07:00:03;67264.28;;;0.67;100.00
36354;BME280;22383;51.114;13.666;2023-01-31T07:02:30;67270.25;;;0.70;100.00
36354;BME280;22383;51.114;13.666;2023-01-31T07:04:57;67274.19;;;0.74;100.00
36354;BME280;22383;51.114;13.666;2023-01-31T07:07:24;67272.88;;;0.70;100.00
36354;BME280;22383;51.114;13.666;2023-01-31T07:09:51;67272.50;;;0.72;100.00
36354;BME280;22383;51.114;13.666;2023-01-31T07:12:19;67276.22;;;0.73;100.00
36354;BME280;22383;51.114;13.666;2023-01-31T07:14:48;67273.84;;;0.76;100.00
36354;BME280;22383;51.114;13.666;2023-01-31T07:17:15;67278.13;;;0.78;100.00
36354;BME280;22383;51.114;13.666;2023-01-31T07:19:44;67282.84;;;0.84;100.00
36354;BME280;22383;51.114;13.666;2023-01-31T07:22:11;67288.25;;;0.87;100.00
36354;BME280;22383;51.114;13.666;2023-01-31T07:24:38;67292.41;;;0.93;100.00
36354;BME280;22383;51.114;13.666;2023-01-31T07:27:06;67294.66;;;0.95;100.00
36354;BME280;22383;51.114;13.666;2023-01-31T07:29:33;67298.38;;;0.96;100.00
36354;BME280;22383;51.114;13.666;2023-01-31T07:32:04;67298.00;;;0.98;100.00
36354;BME280;22383;51.114;13.666;2023-01-31T07:34:31;67300.06;;;0.98;100.00
36354;BME280;22383;51.114;13.666;2023-01-31T07:36:59;67301.56;;;0.97;100.00
36354;BME280;22383;51.114;13.666;2023-01-31T07:39:27;67295.22;;;0.96;100.00
36354;BME280;22383;51.114;13.666;2023-01-31T07:41:56;67295.94;;;0.91;100.00
36354;BME280;22383;51.114;13.666;2023-01-31T07:44:23;67297.03;;;0.92;100.00
36354;BME280;22383;51.114;13.666;2023-01-31T07:46:52;67297.03;;;0.92;100.00
36354;BME280;22383;51.114;13.666;2023-01-31T07:49:20;67300.22;;;0.93;100.00
36354;BME280;22383;51.114;13.666;2023-01-31T07:51:48;67299.28;;;0.94;100.00
36354;BME280;22383;51.114;13.666;2023-01-31T07:54:15;67295.00;;;0.93;100.00
36354;BME280;22383;51.114;13.666;2023-01-31T07:56:42;67295.16;;;0.88;100.00
36354;BME280;22383;51.114;13.666;2023-01-31T07:59:10;67289.16;;;0.85;100.00
36354;BME280;22383;51.114;13.666;2023-01-31T08:01:38;67288.97;;;0.83;100.00
36354;BME280;22383;51.114;13.666;2023-01-31T08:04:24;67283.19;;;0.82;100.00
36354;BME280;22383;51.114;13.666;2023-01-31T08:06:53;67292.91;;;0.86;100.00
36354;BME280;22383;51.114;13.666;2023-01-31T08:09:22;67297.63;;;0.93;100.00
36354;BME280;22383;51.114;13.666;2023-01-31T08:11:50;67315.81;;;1.12;100.00
36354;BME280;22383;51.114;13.666;2023-01-31T08:14:18;67323.69;;;1.19;100.00
36354;BME280;22383;51.114;13.666;2023-01-31T08:16:51;67333.25;;;1.28;100.00
36354;BME280;22383;51.114;13.666;2023-01-31T08:19:19;67338.88;;;1.33;100.00
36354;BME280;22383;51.114;13.666;2023-01-31T08:21:46;67341.69;;;1.36;100.00
36354;BME280;22383;51.114;13.666;2023-01-31T08:24:13;67347.69;;;1.39;100.00
36354;BME280;22383;51.114;13.666;2023-01-31T08:26:41;67343.03;;;1.39;100.00
36354;BME280;22383;51.114;13.666;2023-01-31T08:29:09;67348.22;;;1.39;100.00
36354;BME280;22383;51.114;13.666;2023-01-31T08:31:39;67347.88;;;1.41;100.00
36354;BME280;22383;51.114;13.666;2023-01-31T08:34:07;67347.31;;;1.41;100.00
36354;BME280;22383;51.114;13.666;2023-01-31T08:36:34;67344.72;;;1.41;100.00
36354;BME280;22383;51.114;13.666;2023-01-31T08:39:03;67349.34;;;1.40;100.00
36354;BME280;22383;51.114;13.666;2023-01-31T08:41:32;67356.66;;;1.47;100.00
36354;BME280;22383;51.114;13.666;2023-01-31T08:44:00;67353.16;;;1.48;100.00
36354;BME280;22383;51.114;13.666;2023-01-31T08:46:33;67362.88;;;1.53;100.00
36354;BME280;22383;51.114;13.666;2023-01-31T08:49:03;67366.81;;;1.56;100.00
36354;BME280;22383;51.114;13.666;2023-01-31T08:51:31;67368.69;;;1.60;100.00
36354;BME280;22383;51.114;13.666;2023-01-31T08:53:58;67370.94;;;1.62;100.00
36354;BME280;22383;51.114;13.666;2023-01-31T08:56:26;67376.56;;;1.67;100.00
36354;BME280;22383;51.114;13.666;2023-01-31T08:58:54;67380.50;;;1.71;100.00
36354;BME280;22383;51.114;13.666;2023-01-31T09:01:23;67381.66;;;1.72;100.00
36354;BME280;22383;51.114;13.666;2023-01-31T09:03:50;67386.91;;;1.79;100.00
36354;BME280;22383;51.114;13.666;2023-01-31T09:06:25;67398.19;;;1.89;100.00
36354;BME280;22383;51.114;13.666;2023-01-31T09:08:55;67401.34;;;1.90;100.00
36354;BME280;22383;51.114;13.666;2023-01-31T09:11:23;67403.59;;;1.92;100.00
36354;BME280;22383;51.114;13.666;2023-01-31T09:13:52;67401.91;;;1.91;100.00
36354;BME280;22383;51.114;13.666;2023-01-31T09:16:20;67406.97;;;1.95;100.00
36354;BME280;22383;51.114;13.666;2023-01-31T09:18:47;67415.41;;;2.03;100.00
36354;BME280;22383;51.114;13.666;2023-01-31T09:21:18;67429.50;;;2.16;100.00
36354;BME280;22383;51.114;13.666;2023-01-31T09:23:46;67441.88;;;2.27;100.00
36354;BME280;22383;51.114;13.666;2023-01-31T09:26:15;67458.97;;;2.45;100.00
36354;BME280;22383;51.114;13.666;2023-01-31T09:28:42;67467.41;;;2.53;100.00
36354;BME280;22383;51.114;13.666;2023-01-31T09:31:14;67466.84;;;2.52;100.00
36354;BME280;22383;51.114;13.666;2023-01-31T09:33:42;67457.63;;;2.41;100.00
36354;BME280;22383;51.114;13.666;2023-01-31T09:36:12;67444.13;;;2.29;100.00
36354;BME280;22383;51.114;13.666;2023-01-31T09:38:40;67452.56;;;2.37;100.00
36354;BME280;22383;51.114;13.666;2023-01-31T09:43:54;67457.44;;;2.39;100.00
36354;BME280;22383;51.114;13.666;2023-01-31T09:46:27;67450.66;;;2.33;100.00
36354;BME280;22383;51.114;13.666;2023-01-31T09:49:01;67454.81;;;2.39;100.00
36354;BME280;22383;51.114;13.666;2023-01-31T09:51:36;67460.47;;;2.44;100.00
36354;BME280;22383;51.114;13.666;2023-01-31T09:54:13;67467.56;;;2.48;100.00
36354;BME280;22383;51.114;13.666;2023-01-31T10:00:05;67465.09;;;2.70;100.00
36354;BME280;22383;51.114;13.666;2023-01-31T10:02:50;67499.31;;;2.79;100.00
36354;BME280;22383;51.114;13.666;2023-01-31T10:14:40;67501.56;;;2.81;100.00
36354;BME280;22383;51.114;13.666;2023-01-31T10:17:42;67490.66;;;2.69;100.00
36354;BME280;22383;51.114;13.666;2023-01-31T10:20:19;67484.47;;;2.63;100.00
36354;BME280;22383;51.114;13.666;2023-01-31T10:22:53;67477.34;;;2.59;100.00
36354;BME280;22383;51.114;13.666;2023-01-31T10:25:27;67474.53;;;2.57;100.00
36354;BME280;22383;51.114;13.666;2023-01-31T10:28:03;67478.47;;;2.60;100.00
36354;BME280;22383;51.114;13.666;2023-01-31T10:30:59;67472.84;;;2.55;100.00
36354;BME280;22383;51.114;13.666;2023-01-31T10:39:51;67478.47;;;2.60;100.00
36354;BME280;22383;51.114;13.666;2023-01-31T10:42:26;67475.66;;;2.58;100.00
36354;BME280;22383;51.114;13.666;2023-01-31T10:45:18;67471.91;;;2.57;100.00
36354;BME280;22383;51.114;13.666;2023-01-31T10:47:50;67472.13;;;2.59;100.00
36354;BME280;22383;51.114;13.666;2023-01-31T10:58:39;67466.84;;;2.52;100.00
36354;BME280;22383;51.114;13.666;2023-01-31T11:01:07;67475.44;;;2.55;100.00
36354;BME280;22383;51.114;13.666;2023-01-31T11:03:38;67477.34;;;2.59;100.00
36354;BME280;22383;51.114;13.666;2023-01-31T11:06:10;67486.16;;;2.65;100.00
36354;BME280;22383;51.114;13.666;2023-01-31T11:08:46;67480.56;;;2.67;100.00
36354;BME280;22383;51.114;13.666;2023-01-31T11:11:16;67482.97;;;2.64;100.00
36354;BME280;22383;51.114;13.666;2023-01-31T11:14:05;67484.47;;;2.63;100.00
36354;BME280;22383;51.114;13.666;2023-01-31T11:16:35;67484.31;;;2.68;100.00
36354;BME280;22383;51.114;13.666;2023-01-31T11:19:21;67482.06;;;2.66;100.00
36354;BME280;22383;51.114;13.666;2023-01-31T11:21:51;67483.56;;;2.65;100.00
36354;BME280;22383;51.114;13.666;2023-01-31T11:24:22;67486.34;;;2.68;100.00
36354;BME280;22383;51.114;13.666;2023-01-31T11:26:56;67493.69;;;2.74;100.00
36354;BME280;22383;51.114;13.666;2023-01-31T11:29:27;67501.00;;;2.81;100.00
36354;BME280;22383;51.114;13.666;2023-01-31T11:31:57;67506.66;;;2.86;100.00
36354;BME280;22383;51.114;13.666;2023-01-31T11:34:27;67528.97;;;3.04;100.00
36354;BME280;22383;51.114;13.666;2023-01-31T11:37:13;67538.19;;;3.15;100.00
36354;BME280;22383;51.114;13.666;2023-01-31T11:39:41;67546.63;;;3.22;100.00
36354;BME280;22383;51.114;13.666;2023-01-31T11:42:20;67536.13;;;3.15;100.00
36354;BME280;22383;51.114;13.666;2023-01-31T11:45:00;67543.41;;;3.15;100.00
36354;BME280;22383;51.114;13.666;2023-01-31T11:47:51;67545.16;;;3.24;100.00
36354;BME280;22383;51.114;13.666;2023-01-31T11:50:38;67544.53;;;3.42;100.00
36354;BME280;22383;51.114;13.666;2023-01-31T11:53:16;67603.38;;;3.72;100.00
36354;BME280;22383;51.114;13.666;2023-01-31T11:55:47;67624.06;;;3.95;100.00
36354;BME280;22383;51.114;13.666;2023-01-31T11:58:23;67626.31;;;3.97;100.00
36354;BME280;22383;51.114;13.666;2023-01-31T12:01:05;67613.72;;;3.84;100.00
36354;BME280;22383;51.114;13.666;2023-01-31T12:03:33;67598.84;;;3.68;100.00
36354;BME280;22383;51.114;13.666;2023-01-31T12:06:06;67592.09;;;3.62;100.00
36354;BME280;22383;51.114;13.666;2023-01-31T12:08:39;67593.22;;;3.63;100.00
36354;BME280;22383;51.114;13.666;2023-01-31T12:16:34;67573.69;;;3.47;100.00
36354;BME280;22383;51.114;13.666;2023-01-31T12:35:54;67577.66;;;3.51;100.00
36354;BME280;22383;51.114;13.666;2023-01-31T12:41:32;67544.59;;;3.23;100.00
36354;BME280;22383;51.114;13.666;2023-01-31T12:44:19;67513.94;;;2.93;100.00
36354;BME280;22383;51.114;13.666;2023-01-31T13:03:02;67506.44;;;2.83;100.00
36354;BME280;22383;51.114;13.666;2023-01-31T13:05:54;67505.31;;;2.82;100.00
36354;BME280;22383;51.114;13.666;2023-01-31T13:08:26;67507.41;;;2.89;100.00
36354;BME280;22383;51.114;13.666;2023-01-31T13:11:08;67509.44;;;2.89;100.00
36354;BME280;22383;51.114;13.666;2023-01-31T13:13:46;67509.44;;;2.89;100.00
36354;BME280;22383;51.114;13.666;2023-01-31T13:16:20;67501.56;;;2.81;100.00
36354;BME280;22383;51.114;13.666;2023-01-31T13:18:51;67489.19;;;2.70;100.00
36354;BME280;22383;51.114;13.666;2023-01-31T13:21:23;67483.34;;;2.62;100.00
36354;BME280;22383;51.114;13.666;2023-01-31T13:23:58;67465.88;;;2.46;100.00
36354;BME280;22383;51.114;13.666;2023-01-31T13:26:31;67455.38;;;2.39;100.00
36354;BME280;22383;51.114;13.666;2023-01-31T13:29:44;67446.19;;;2.29;100.00
36354;BME280;22383;51.114;13.666;2023-01-31T13:32:03;67428.00;;;2.17;100.00
36354;BME280;22383;51.114;13.666;2023-01-31T13:34:48;67423.28;;;2.10;100.00
36354;BME280;22383;51.114;13.666;2023-01-31T13:37:18;67422.38;;;2.12;100.00
36354;BME280;22383;51.114;13.666;2023-01-31T13:40:02;67407.34;;;1.93;100.00
36354;BME280;22383;51.114;13.666;2023-01-31T13:42:33;67400.78;;;1.89;100.00
36354;BME280;22383;51.114;13.666;2023-01-31T13:45:03;67399.66;;;1.88;100.00
36354;BME280;22383;51.114;13.666;2023-01-31T13:47:46;67396.06;;;1.83;100.00
36354;BME280;22383;51.114;13.666;2023-01-31T13:53:36;67387.28;;;1.77;100.00
36354;BME280;22383;51.114;13.666;2023-01-31T13:56:14;67381.84;;;1.75;100.00
36354;BME280;22383;51.114;13.666;2023-01-31T13:58:47;67377.91;;;1.71;100.00
36354;BME280;22383;51.114;13.666;2023-01-31T14:01:19;67378.81;;;1.69;100.00
36354;BME280;22383;51.114;13.666;2023-01-31T14:09:33;67373.19;;;1.64;100.00
36354;BME280;22383;51.114;13.666;2023-01-31T14:14:45;67367.56;;;1.59;100.00
36354;BME280;22383;51.114;13.666;2023-01-31T14:20:04;67368.13;;;1.60;100.00
36354;BME280;22383;51.114;13.666;2023-01-31T14:22:36;67368.69;;;1.60;100.00
36354;BME280;22383;51.114;13.666;2023-01-31T14:25:10;67370.16;;;1.59;100.00
36354;BME280;22383;51.114;13.666;2023-01-31T14:30:43;67372.63;;;1.64;100.00
36354;BME280;22383;51.114;13.666;2023-01-31T14:33:20;67370.38;;;1.62;100.00
36354;BME280;22383;51.114;13.666;2023-01-31T14:36:06;67369.81;;;1.61;100.00
36354;BME280;22383;51.114;13.666;2023-01-31T14:41:49;67374.09;;;1.63;100.00
36354;BME280;22383;51.114;13.666;2023-01-31T14:58:34;67378.03;;;1.66;100.00
36354;BME280;22383;51.114;13.666;2023-01-31T15:01:05;67377.13;;;1.68;100.00
36354;BME280;22383;51.114;13.666;2023-01-31T15:03:35;67378.03;;;1.66;100.00
36354;BME280;22383;51.114;13.666;2023-01-31T15:06:21;67373.19;;;1.64;100.00
36354;BME280;22383;51.114;13.666;2023-01-31T15:08:57;67378.41;;;1.64;100.00
36354;BME280;22383;51.114;13.666;2023-01-31T15:14:37;67369.81;;;1.61;100.00
36354;BME280;22383;51.114;13.666;2023-01-31T15:17:19;67375.59;;;1.62;100.00
36354;BME280;22383;51.114;13.666;2023-01-31T15:20:17;67367.00;;;1.59;100.00
36354;BME280;22383;51.114;13.666;2023-01-31T15:22:45;67359.31;;;1.54;100.00
36354;BME280;22383;51.114;13.666;2023-01-31T15:27:50;67360.06;;;1.50;100.00
36354;BME280;22383;51.114;13.666;2023-01-31T15:30:21;67358.00;;;1.50;100.00